Time;durP1;ratioP1;P1;durP2;ratioP2;P2;SDS_P1;SDS_P2;PMS_P1;PMS_P2;Temp;Humidity;BMP_temperature;BMP_pressure;BME280_temperature;BME280_humidity;BME280_pressure;Samples;Min_cycle;Max_cycle;Signal;HPM_P1;HPM_P2
2023/11/28 00:00:53;;;;;;;3.30;3.10;;;;;;;3.06;100.00;99967.59;5038235;28;20037;-75
2023/11/28 00:03:18;;;;;;;2.55;2.45;;;;;;;3.04;100.00;99976.31;5043959;28;20045;-75
2023/11/28 00:05:44;;;;;;;2.95;2.75;;;;;;;3.07;100.00;99979.66;5036950;28;20271;-75
2023/11/28 00:08:09;;;;;;;3.00;2.80;;;;;;;3.10;100.00;99985.66;5048129;28;20033;-75
2023/11/28 00:10:34;;;;;;;4.43;3.17;;;;;;;3.19;100.00;99988.88;5036462;28;20244;-75
2023/11/28 00:13:00;;;;;;;3.17;2.97;;;;;;;3.15;100.00;99989.00;5037046;28;20340;-75
2023/11/28 00:15:25;;;;;;;3.45;3.22;;;;;;;3.12;100.00;99992.47;5036981;28;20075;-75
2023/11/28 00:17:53;;;;;;;3.15;2.95;;;;;;;3.12;100.00;99995.06;5035688;28;20045;-75
2023/11/28 00:20:19;;;;;;;3.40;3.20;;;;;;;3.07;100.00;99995.19;5036328;28;20562;-75
2023/11/28 00:22:45;;;;;;;3.10;2.90;;;;;;;3.02;100.00;100001.34;5036518;28;20331;-75
2023/11/28 00:25:10;;;;;;;3.70;3.50;;;;;;;3.02;100.00;100014.25;5036637;28;20033;-75
2023/11/28 00:27:35;;;;;;;3.40;3.20;;;;;;;2.98;100.00;100008.31;5034989;28;20412;-75
2023/11/28 00:30:01;;;;;;;4.28;3.97;;;;;;;2.96;100.00;100014.41;5036568;28;20100;-75
2023/11/28 00:32:26;;;;;;;4.10;3.80;;;;;;;2.93;100.00;100011.88;5036894;28;20041;-75
2023/11/28 00:34:52;;;;;;;4.60;4.30;;;;;;;2.98;100.00;100012.63;5036500;28;20049;-75
2023/11/28 00:37:17;;;;;;;5.32;4.93;;;;;;;3.03;100.00;100024.59;5036650;28;20271;-75
2023/11/28 00:39:43;;;;;;;6.30;5.90;;;;;;;2.94;100.00;100031.72;5036080;28;20348;-75
2023/11/28 00:42:08;;;;;;;6.78;6.28;;;;;;;2.95;100.00;100038.56;5036297;28;20044;-75
2023/11/28 00:44:34;;;;;;;6.63;6.13;;;;;;;2.93;100.00;100040.34;5035813;28;20260;-75
2023/11/28 00:46:59;;;;;;;5.88;5.38;;;;;;;2.82;100.00;100054.38;5036278;28;20059;-75
2023/11/28 00:49:25;;;;;;;6.53;6.05;;;;;;;2.88;100.00;100055.97;5036744;28;20028;-76
2023/11/28 00:51:53;;;;;;;5.78;5.38;;;;;;;2.81;100.00;100063.00;5035745;28;20045;-75
2023/11/28 00:54:19;;;;;;;6.03;5.63;;;;;;;2.68;100.00;100059.81;5036634;28;20053;-75
2023/11/28 00:56:44;;;;;;;5.30;4.90;;;;;;;2.73;100.00;100062.34;5017689;28;20091;-75
2023/11/28 00:59:09;;;;;;;5.60;5.10;;;;;;;2.78;100.00;100067.38;5035522;28;20072;-75
2023/11/28 01:01:35;;;;;;;4.90;4.60;;;;;;;2.77;100.00;100071.72;5035356;28;20064;-75
2023/11/28 01:04:00;;;;;;;4.70;4.40;;;;;;;2.66;100.00;100079.69;5036023;28;20063;-75
2023/11/28 01:06:25;;;;;;;5.10;4.70;;;;;;;2.81;100.00;100082.84;5036185;28;20041;-75
2023/11/28 01:08:51;;;;;;;4.90;4.50;;;;;;;2.85;100.00;100094.81;5034732;28;20037;-75
2023/11/28 01:11:16;;;;;;;4.75;4.45;;;;;;;2.94;100.00;100097.22;5035657;28;20265;-75
2023/11/28 01:13:41;;;;;;;5.07;4.68;;;;;;;2.87;100.00;100103.41;5035570;28;20044;-75
2023/11/28 01:16:10;;;;;;;4.35;4.05;;;;;;;2.89;100.00;100117.16;5036035;28;20041;-75
2023/11/28 01:18:35;;;;;;;4.30;4.00;;;;;;;2.84;100.00;100113.84;5035428;28;20060;-75
2023/11/28 01:21:02;;;;;;;4.50;4.20;;;;;;;2.87;100.00;100124.97;5036096;28;20276;-75
2023/11/28 01:23:27;;;;;;;4.97;4.57;;;;;;;2.83;100.00;100117.28;5035496;28;20078;-75
2023/11/28 01:25:53;;;;;;;4.63;4.32;;;;;;;2.68;100.00;100123.63;5035647;28;20100;-75
2023/11/28 01:28:18;;;;;;;4.50;4.20;;;;;;;2.73;100.00;100136.44;5035671;28;20298;-75
2023/11/28 01:30:44;;;;;;;5.47;4.53;;;;;;;2.74;100.00;100133.84;5035349;28;20093;-75
2023/11/28 01:33:09;;;;;;;5.18;4.68;;;;;;;2.61;100.00;100135.81;5035423;28;20033;-75
2023/11/28 01:35:35;;;;;;;5.05;4.65;;;;;;;2.69;100.00;100141.69;5035342;28;20243;-75
2023/11/28 01:38:00;;;;;;;4.90;4.60;;;;;;;2.66;100.00;100140.91;5035279;28;20107;-75
2023/11/28 01:40:26;;;;;;;5.43;4.97;;;;;;;2.65;100.00;100145.19;5035845;28;20363;-75
2023/11/28 01:42:51;;;;;;;5.82;5.38;;;;;;;2.64;100.00;100146.09;5035342;28;20366;-75
2023/11/28 01:45:21;;;;;;;6.70;6.10;;;;;;;2.64;100.00;100153.00;5035056;28;20037;-75
2023/11/28 01:47:47;;;;;;;6.63;6.13;;;;;;;2.63;100.00;100164.22;5034780;28;20037;-75
2023/11/28 01:50:13;;;;;;;6.28;5.68;;;;;;;2.66;100.00;100165.00;5035232;28;20036;-75
2023/11/28 01:52:38;;;;;;;6.00;5.50;;;;;;;2.69;100.00;100177.00;5034730;28;20280;-75
2023/11/28 01:55:04;;;;;;;5.57;5.07;;;;;;;2.67;100.00;100179.66;5034964;28;20233;-75
2023/11/28 01:57:32;;;;;;;5.65;5.20;;;;;;;2.65;100.00;100193.47;5035016;28;20040;-75
2023/11/28 01:59:59;;;;;;;5.60;5.10;;;;;;;2.60;100.00;100191.00;5034978;28;20362;-75
2023/11/28 02:02:26;;;;;;;6.10;5.60;;;;;;;2.56;100.00;100198.81;5035214;28;20380;-75
2023/11/28 02:04:52;;;;;;;5.45;4.95;;;;;;;2.64;100.00;100199.53;5034883;28;20048;-75
2023/11/28 02:07:18;;;;;;;5.50;5.00;;;;;;;2.66;100.00;100198.63;5035293;28;20163;-75
2023/11/28 02:09:43;;;;;;;4.80;4.47;;;;;;;2.65;100.00;100201.22;5034076;28;20091;-75
2023/11/28 02:12:08;;;;;;;8.38;4.65;;;;;;;2.63;100.00;100203.84;5034709;28;20049;-75
2023/11/28 02:14:42;;;;;;;4.72;4.32;;;;;;;2.58;100.00;100226.34;5034222;28;20354;-75
2023/11/28 02:17:07;;;;;;;4.78;4.38;;;;;;;2.57;100.00;100226.38;5034251;28;20033;-75
2023/11/28 02:19:32;;;;;;;4.45;4.15;;;;;;;2.54;100.00;100244.53;5038515;28;20117;-73
2023/11/28 02:21:58;;;;;;;6.20;4.18;;;;;;;2.53;100.00;100248.84;5035124;28;20041;-73
2023/11/28 02:24:24;;;;;;;3.83;3.55;;;;;;;2.55;100.00;100252.25;5035200;28;20052;-73
2023/11/28 02:26:49;;;;;;;4.20;3.55;;;;;;;2.60;100.00;100259.91;5036820;28;20037;-72
2023/11/28 02:29:15;;;;;;;4.20;3.70;;;;;;;2.59;100.00;100256.50;5042484;28;20046;-72
2023/11/28 02:31:40;;;;;;;3.88;3.58;;;;;;;2.63;100.00;100257.28;5034509;28;20040;-72
2023/11/28 02:34:05;;;;;;;3.90;3.50;;;;;;;2.58;100.00;100272.03;5034610;28;20209;-73
2023/11/28 02:36:31;;;;;;;4.88;4.05;;;;;;;2.53;100.00;100279.88;5034800;28;20040;-73
2023/11/28 02:38:56;;;;;;;9.75;4.60;;;;;;;2.52;100.00;100283.31;5040729;28;20041;-73
2023/11/28 02:41:21;;;;;;;6.47;4.63;;;;;;;2.53;100.00;100281.59;5034471;28;20348;-73
2023/11/28 02:43:47;;;;;;;4.72;4.28;;;;;;;2.66;100.00;100289.13;5016091;28;20332;-73
2023/11/28 02:46:12;;;;;;;4.63;4.18;;;;;;;2.61;100.00;100296.09;5034353;28;20047;-73
2023/11/28 02:48:40;;;;;;;5.97;4.40;;;;;;;2.50;100.00;100298.84;5033832;28;20265;-73
2023/11/28 02:51:05;;;;;;;6.32;4.78;;;;;;;2.41;100.00;100306.75;5034109;28;20333;-73
2023/11/28 02:53:31;;;;;;;4.43;3.92;;;;;;;2.39;100.00;100303.34;5034540;28;20096;-73
2023/11/28 02:55:56;;;;;;;4.85;4.00;;;;;;;2.40;100.00;100312.81;5034199;28;20056;-73
2023/11/28 02:58:22;;;;;;;4.03;3.63;;;;;;;2.30;100.00;100317.25;5034601;28;20048;-73
2023/11/28 03:00:47;;;;;;;5.03;3.85;;;;;;;2.33;100.00;100316.38;5033894;28;20026;-73
2023/11/28 03:03:12;;;;;;;4.18;3.78;;;;;;;2.34;100.00;100335.31;5034327;28;20098;-73
2023/11/28 03:05:38;;;;;;;5.30;3.40;;;;;;;2.34;100.00;100327.56;5034158;28;20104;-73
2023/11/28 03:08:03;;;;;;;3.60;3.30;;;;;;;2.43;100.00;100338.59;5034066;28;20098;-75
2023/11/28 03:10:29;;;;;;;2.90;2.70;;;;;;;2.42;100.00;100336.91;5034184;28;20036;-75
2023/11/28 03:12:54;;;;;;;4.47;2.95;;;;;;;2.31;100.00;100343.97;5040706;28;20025;-75
2023/11/28 03:15:19;;;;;;;4.43;2.75;;;;;;;2.37;100.00;100343.03;5034166;28;20310;-75
2023/11/28 03:17:45;;;;;;;2.83;2.63;;;;;;;2.40;99.49;100343.84;5033990;28;20319;-75
2023/11/28 03:20:10;;;;;;;2.50;2.20;;;;;;;2.35;99.48;100348.22;5033648;28;20096;-75
2023/11/28 03:22:36;;;;;;;2.25;2.05;;;;;;;2.28;99.59;100352.59;5033602;28;20234;-75
2023/11/28 03:25:09;;;;;;;2.67;2.47;;;;;;;2.18;99.84;100353.59;5033916;28;20041;-75
2023/11/28 03:27:34;;;;;;;2.95;2.75;;;;;;;2.13;100.00;100347.66;5033701;28;20033;-75
2023/11/28 03:30:00;;;;;;;3.97;2.55;;;;;;;2.10;100.00;100363.19;5033702;28;20104;-75
2023/11/28 03:32:25;;;;;;;4.47;2.50;;;;;;;2.05;100.00;100362.41;5038017;28;20294;-74
2023/11/28 03:34:51;;;;;;;5.90;2.65;;;;;;;1.99;100.00;100362.50;5037454;28;20041;-74
2023/11/28 03:37:16;;;;;;;4.10;2.17;;;;;;;2.05;100.00;100362.41;5037985;28;20447;-74
2023/11/28 03:39:42;;;;;;;2.70;2.50;;;;;;;1.93;100.00;100368.59;5037305;28;20072;-74
2023/11/28 03:42:07;;;;;;;2.60;2.20;;;;;;;1.94;100.00;100372.03;5038050;28;20037;-74
2023/11/28 03:44:33;;;;;;;2.13;1.92;;;;;;;1.89;100.00;100374.66;5037488;28;20025;-74
2023/11/28 03:46:58;;;;;;;2.15;1.95;;;;;;;1.88;100.00;100370.38;5038255;28;20313;-74
2023/11/28 03:49:23;;;;;;;2.40;1.67;;;;;;;1.76;100.00;100380.84;5038551;28;20037;-74
2023/11/28 03:51:49;;;;;;;3.45;1.60;;;;;;;1.81;100.00;100379.91;5037802;28;20324;-74
2023/11/28 03:54:14;;;;;;;4.32;1.50;;;;;;;1.64;99.71;100387.88;5038093;28;20091;-74
2023/11/28 03:56:43;;;;;;;1.98;1.77;;;;;;;1.69;100.00;100393.84;5037375;28;20030;-74
2023/11/28 03:59:08;;;;;;;4.50;1.55;;;;;;;1.58;99.73;100387.06;5037520;28;20407;-74
2023/11/28 04:01:34;;;;;;;1.50;1.40;;;;;;;1.58;100.00;100400.81;5037275;28;20206;-74
2023/11/28 04:03:59;;;;;;;1.83;1.45;;;;;;;1.54;99.77;100399.16;5037788;28;20045;-74
2023/11/28 04:06:24;;;;;;;1.88;1.33;;;;;;;1.47;99.77;100408.66;5038158;28;20037;-74
2023/11/28 04:08:51;;;;;;;2.13;1.20;;;;;;;1.50;99.03;100412.97;5037410;28;20049;-75
2023/11/28 04:11:17;;;;;;;2.00;1.30;;;;;;;1.61;99.78;100413.69;5037799;28;20347;-75
2023/11/28 04:13:42;;;;;;;1.88;1.42;;;;;;;1.55;99.23;100424.09;5036934;28;20065;-75
2023/11/28 04:16:07;;;;;;;2.05;1.20;;;;;;;1.52;98.67;100426.69;5037519;28;20041;-74
2023/11/28 04:18:33;;;;;;;3.58;1.13;;;;;;;1.52;98.30;100429.28;5036556;28;20049;-74
2023/11/28 04:20:58;;;;;;;3.28;1.00;;;;;;;1.53;98.07;100438.75;5036965;28;20039;-74
2023/11/28 04:23:24;;;;;;;1.42;1.20;;;;;;;1.57;98.64;100437.84;5037162;28;20041;-74
2023/11/28 04:25:49;;;;;;;1.30;1.20;;;;;;;1.70;99.24;100439.41;5036792;28;20329;-72
2023/11/28 04:28:14;;;;;;;1.13;1.00;;;;;;;1.60;98.15;100445.56;5037240;28;20039;-72
2023/11/28 04:30:40;;;;;;;0.93;0.93;;;;;;;1.61;97.74;100446.41;5036293;28;20084;-72
2023/11/28 04:33:05;;;;;;;1.33;1.20;;;;;;;1.60;97.68;100449.84;5036755;28;20029;-74
2023/11/28 04:35:31;;;;;;;0.73;0.73;;;;;;;1.64;97.67;100447.22;5036574;28;20030;-74
2023/11/28 04:37:56;;;;;;;1.75;1.08;;;;;;;1.55;97.12;100444.75;5036724;28;20092;-74
2023/11/28 04:40:22;;;;;;;0.82;0.75;;;;;;;1.45;96.44;100451.72;5036667;28;20033;-74
2023/11/28 04:42:47;;;;;;;1.05;0.93;;;;;;;1.46;96.16;100462.91;5035151;28;20321;-74
2023/11/28 04:45:12;;;;;;;3.75;1.00;;;;;;;1.44;96.15;100470.66;5036501;28;20075;-74
2023/11/28 04:47:38;;;;;;;1.55;0.70;;;;;;;1.45;95.62;100468.91;5037222;28;20057;-75
2023/11/28 04:50:05;;;;;;;1.02;0.93;;;;;;;1.47;95.84;100477.50;5036924;28;20339;-74
2023/11/28 04:52:30;;;;;;;0.95;0.85;;;;;;;1.44;94.89;100487.88;5036515;28;20139;-74
2023/11/28 04:54:55;;;;;;;2.00;1.00;;;;;;;1.46;95.51;100486.13;5036396;28;20037;-74
2023/11/28 04:57:21;;;;;;;2.60;1.50;;;;;;;1.57;96.63;100486.88;5037150;28;20036;-74
2023/11/28 04:59:46;;;;;;;1.10;1.00;;;;;;;1.68;97.42;100489.38;5035926;28;20041;-74
2023/11/28 05:02:11;;;;;;;1.50;1.25;;;;;;;1.58;97.39;100495.47;5036152;28;20263;-72
2023/11/28 05:04:37;;;;;;;2.55;1.30;;;;;;;1.62;97.30;100505.78;5036187;28;20256;-72
2023/11/28 05:07:03;;;;;;;1.27;1.17;;;;;;;1.52;97.14;100506.72;5036152;28;20413;-72
2023/11/28 05:09:29;;;;;;;2.58;1.30;;;;;;;1.51;97.26;100515.31;5036549;28;20394;-72
2023/11/28 05:11:54;;;;;;;1.73;1.27;;;;;;;1.54;98.08;100508.41;5036364;28;20040;-74
2023/11/28 05:14:19;;;;;;;1.08;1.00;;;;;;;1.63;98.56;100506.63;5036563;28;20029;-74
2023/11/28 05:16:45;;;;;;;1.60;1.23;;;;;;;1.56;98.88;100516.13;5035733;28;20045;-74
2023/11/28 05:19:10;;;;;;;1.17;1.17;;;;;;;1.58;98.71;100514.38;5036938;28;20092;-74
2023/11/28 05:21:36;;;;;;;1.67;1.33;;;;;;;1.54;98.44;100525.63;5036309;28;20109;-74
2023/11/28 05:24:01;;;;;;;1.50;1.20;;;;;;;1.49;97.86;100530.84;5041426;28;20051;-74
2023/11/28 05:26:27;;;;;;;1.17;1.10;;;;;;;1.59;98.30;100536.75;5035855;28;20040;-74
2023/11/28 05:28:52;;;;;;;1.85;1.17;;;;;;;1.64;99.06;100545.34;5035964;28;20132;-74
2023/11/28 05:31:18;;;;;;;1.30;1.20;;;;;;;1.56;98.95;100539.38;5036567;28;20071;-74
2023/11/28 05:33:44;;;;;;;2.72;1.25;;;;;;;1.46;98.45;100551.50;5039747;28;20244;-74
2023/11/28 05:36:09;;;;;;;10.00;1.23;;;;;;;1.37;98.16;100550.72;5040843;28;20355;-74
2023/11/28 05:38:35;;;;;;;1.92;1.00;;;;;;;1.30;97.80;100555.91;5035922;28;20029;-74
2023/11/28 05:41:00;;;;;;;1.10;1.00;;;;;;;1.32;97.99;100561.06;5041406;28;20151;-74
2023/11/28 05:43:28;;;;;;;1.40;1.05;;;;;;;1.38;98.18;100561.00;5039908;28;20029;-74
2023/11/28 05:45:53;;;;;;;1.15;1.00;;;;;;;1.39;98.12;100562.72;5055129;28;20041;-74
2023/11/28 05:48:19;;;;;;;2.67;1.27;;;;;;;1.34;97.90;100573.06;5049970;28;20044;-74
2023/11/28 05:50:44;;;;;;;1.45;1.10;;;;;;;1.30;98.04;100573.13;5035907;28;20033;-74
2023/11/28 05:53:09;;;;;;;1.00;1.00;;;;;;;1.34;98.20;100567.91;5040021;28;20039;-74
2023/11/28 05:55:35;;;;;;;0.95;0.95;;;;;;;1.26;97.97;100574.88;5044223;28;20194;-74
2023/11/28 05:58:00;;;;;;;1.10;0.98;;;;;;;1.24;97.99;100571.44;5036273;28;20040;-74
2023/11/28 06:00:26;;;;;;;1.15;1.05;;;;;;;1.32;98.23;100569.66;5048909;28;20527;-74
2023/11/28 06:02:51;;;;;;;2.15;1.27;;;;;;;1.27;98.06;100575.72;5055205;28;20033;-74
2023/11/28 06:05:17;;;;;;;1.25;1.15;;;;;;;1.24;98.27;100575.75;5036376;28;20037;-74
2023/11/28 06:07:42;;;;;;;1.35;1.20;;;;;;;1.17;98.25;100571.50;5035847;28;20104;-74
2023/11/28 06:10:10;;;;;;;1.20;0.90;;;;;;;1.18;98.46;100574.03;5036066;28;20068;-74
2023/11/28 06:12:35;;;;;;;2.45;1.17;;;;;;;1.19;98.48;100578.34;5035136;28;20087;-74
2023/11/28 06:15:01;;;;;;;1.95;1.10;;;;;;;1.18;98.40;100579.19;5034988;28;20025;-74
2023/11/28 06:17:26;;;;;;;1.63;1.20;;;;;;;1.19;98.47;100580.09;5034684;28;20048;-74
2023/11/28 06:19:51;;;;;;;2.47;1.00;;;;;;;1.21;98.25;100580.94;5034687;28;20089;-74
2023/11/28 06:22:17;;;;;;;1.52;1.35;;;;;;;1.14;98.03;100593.84;5035493;28;20373;-74
2023/11/28 06:24:42;;;;;;;2.42;1.17;;;;;;;1.17;98.07;100595.56;5034675;28;20134;-74
2023/11/28 06:27:08;;;;;;;2.40;1.20;;;;;;;1.17;98.25;100603.31;5034688;28;20136;-74
2023/11/28 06:29:34;;;;;;;1.90;1.27;;;;;;;1.20;98.52;100599.84;5034843;28;20037;-74
2023/11/28 06:32:00;;;;;;;1.33;1.20;;;;;;;1.22;98.45;100606.72;5035352;28;20033;-74
2023/11/28 06:34:26;;;;;;;2.05;1.25;;;;;;;1.26;98.50;100610.97;5035355;28;20070;-74
2023/11/28 06:36:51;;;;;;;1.25;1.15;;;;;;;1.29;98.58;100620.41;5034950;28;20425;-74
2023/11/28 06:39:18;;;;;;;1.33;1.10;;;;;;;1.26;98.46;100613.56;5034918;28;20025;-74
2023/11/28 06:41:45;;;;;;;1.17;1.08;;;;;;;1.23;98.48;100628.19;5034897;28;20051;-74
2023/11/28 06:44:11;;;;;;;1.42;1.08;;;;;;;1.21;98.38;100641.09;5034896;28;20260;-74
2023/11/28 06:46:37;;;;;;;1.40;1.30;;;;;;;1.16;98.56;100650.59;5034419;28;20291;-74
2023/11/28 06:49:02;;;;;;;1.20;1.10;;;;;;;1.11;98.50;100654.91;5034401;28;20199;-74
2023/11/28 06:51:28;;;;;;;3.80;1.38;;;;;;;1.06;98.58;100654.94;5034770;28;20268;-74
2023/11/28 06:53:54;;;;;;;1.88;1.13;;;;;;;1.01;98.87;100655.84;5034385;28;20039;-74
2023/11/28 06:56:19;;;;;;;1.73;1.10;;;;;;;0.98;99.04;100656.69;5030512;28;20107;-74
2023/11/28 06:58:45;;;;;;;2.00;1.08;;;;;;;0.91;99.21;100666.19;5034482;28;20044;-74
2023/11/28 07:01:10;;;;;;;2.38;1.30;;;;;;;0.88;99.58;100668.75;5034209;28;20045;-74
2023/11/28 07:03:36;;;;;;;2.15;1.17;;;;;;;0.86;99.64;100678.22;5034170;28;20041;-74
2023/11/28 07:06:02;;;;;;;1.80;1.70;;;;;;;0.82;99.90;100673.94;5029358;28;20065;-74
2023/11/28 07:08:27;;;;;;;1.77;1.67;;;;;;;0.85;100.00;100691.97;5033204;28;20045;-74
2023/11/28 07:10:53;;;;;;;5.65;2.45;;;;;;;0.83;100.00;100698.00;5033120;28;20044;-74
2023/11/28 07:13:19;;;;;;;1.70;1.60;;;;;;;0.85;100.00;100701.44;5033253;28;20073;-74
2023/11/28 07:15:45;;;;;;;1.95;1.50;;;;;;;0.84;100.00;100703.16;5032805;28;20087;-74
2023/11/28 07:18:10;;;;;;;3.33;1.77;;;;;;;0.83;100.00;100698.84;5014206;28;20369;-74
2023/11/28 07:20:37;;;;;;;1.42;1.35;;;;;;;0.86;100.00;100703.16;5031647;28;20071;-74
2023/11/28 07:23:02;;;;;;;5.22;1.75;;;;;;;0.88;100.00;100702.28;5032087;28;20040;-74
2023/11/28 07:25:28;;;;;;;2.30;1.60;;;;;;;0.94;100.00;100711.72;5031784;28;20032;-74
2023/11/28 07:27:53;;;;;;;1.73;1.63;;;;;;;0.94;100.00;100711.72;5031927;28;20033;-74
2023/11/28 07:30:18;;;;;;;2.83;2.03;;;;;;;1.02;100.00;100702.25;5032143;28;20316;-74
2023/11/28 07:32:44;;;;;;;3.67;1.75;;;;;;;1.05;100.00;100709.09;5032573;28;20072;-74
2023/11/28 07:35:09;;;;;;;1.58;1.48;;;;;;;1.02;100.00;100714.25;5032712;28;20037;-74
2023/11/28 07:37:35;;;;;;;1.73;1.60;;;;;;;1.04;100.00;100715.16;5032026;28;20038;-74
2023/11/28 07:40:00;;;;;;;1.95;1.50;;;;;;;1.07;100.00;100715.97;5032527;28;20100;-74
2023/11/28 07:42:25;;;;;;;1.70;1.60;;;;;;;1.07;100.00;100718.53;5029245;28;20061;-74
2023/11/28 07:44:51;;;;;;;1.83;1.70;;;;;;;1.08;100.00;100720.28;5031359;28;20210;-74
2023/11/28 07:47:16;;;;;;;1.98;1.80;;;;;;;1.05;100.00;100720.28;5033370;28;20362;-74
2023/11/28 07:49:42;;;;;;;3.08;2.05;;;;;;;1.03;100.00;100724.59;5032566;28;20037;-74
2023/11/28 07:52:07;;;;;;;4.03;1.90;;;;;;;1.04;100.00;100728.88;5033362;28;20073;-74
2023/11/28 07:54:33;;;;;;;6.03;1.90;;;;;;;1.00;100.00;100724.63;5032847;28;20033;-74
2023/11/28 07:56:58;;;;;;;4.45;1.70;;;;;;;1.00;100.00;100731.47;5033171;28;20356;-74
2023/11/28 07:59:23;;;;;;;2.78;1.48;;;;;;;0.95;100.00;100734.94;5032272;28;20041;-74
2023/11/28 08:01:49;;;;;;;3.38;2.47;;;;;;;0.86;100.00;100739.25;5033325;28;20057;-74
2023/11/28 08:04:14;;;;;;;3.38;1.73;;;;;;;0.81;100.00;100736.69;5034001;28;20037;-74
2023/11/28 08:06:40;;;;;;;3.45;1.67;;;;;;;0.77;100.00;100733.25;5033674;28;20096;-74
2023/11/28 08:09:08;;;;;;;2.17;1.45;;;;;;;0.75;100.00;100742.72;5033999;28;20025;-74
2023/11/28 08:11:34;;;;;;;2.88;1.90;;;;;;;0.74;100.00;100740.13;5033188;28;20032;-74
2023/11/28 08:13:59;;;;;;;1.73;1.60;;;;;;;0.71;100.00;100738.44;5033171;28;20025;-74
2023/11/28 08:16:24;;;;;;;3.10;1.92;;;;;;;0.70;100.00;100748.75;5014988;28;20025;-74
2023/11/28 08:18:50;;;;;;;3.15;1.90;;;;;;;0.70;100.00;100752.16;5046648;28;20057;-74
2023/11/28 08:21:15;;;;;;;2.97;2.10;;;;;;;0.69;100.00;100754.75;5055966;28;20040;-74
2023/11/28 08:23:41;;;;;;;1.77;1.63;;;;;;;0.69;100.00;100749.59;5055660;28;20039;-74
2023/11/28 08:26:07;;;;;;;5.07;1.88;;;;;;;0.69;100.00;100753.03;5036695;28;20025;-74
2023/11/28 08:28:32;;;;;;;4.07;1.70;;;;;;;0.70;100.00;100749.59;5036738;28;20084;-74
2023/11/28 08:30:58;;;;;;;3.78;2.40;;;;;;;0.68;100.00;100759.03;5036641;28;20037;-74
2023/11/28 08:33:23;;;;;;;4.07;2.42;;;;;;;0.68;100.00;100765.94;5036754;28;20037;-74
2023/11/28 08:35:48;;;;;;;4.93;2.40;;;;;;;0.71;100.00;100768.47;5036489;28;20025;-74
2023/11/28 08:38:14;;;;;;;3.20;2.00;;;;;;;0.73;100.00;100770.22;5047124;28;20210;-74
2023/11/28 08:40:39;;;;;;;3.72;1.80;;;;;;;0.79;100.00;100774.50;5055720;28;20057;-74
2023/11/28 08:43:05;;;;;;;3.05;2.00;;;;;;;0.81;100.00;100785.66;5056422;28;20039;-74
2023/11/28 08:45:30;;;;;;;3.38;2.00;;;;;;;0.83;100.00;100794.25;5056684;28;20053;-74
2023/11/28 08:47:55;;;;;;;1.92;1.83;;;;;;;0.90;100.00;100801.13;5039735;28;20041;-74
2023/11/28 08:50:21;;;;;;;4.03;1.83;;;;;;;0.93;100.00;100797.69;5037787;28;20033;-74
2023/11/28 08:52:46;;;;;;;3.35;2.05;;;;;;;0.97;100.00;100806.28;5037001;28;20043;-74
2023/11/28 08:55:12;;;;;;;1.90;1.80;;;;;;;1.04;100.00;100813.16;5037620;28;20057;-74
2023/11/28 08:57:37;;;;;;;2.58;1.67;;;;;;;1.12;100.00;100806.25;5055643;28;20028;-74
2023/11/28 09:00:04;;;;;;;2.50;2.28;;;;;;;1.18;100.00;100816.53;5056242;28;20095;-74
2023/11/28 09:02:30;;;;;;;3.65;2.78;;;;;;;1.14;100.00;100818.25;5050519;28;20344;-74
2023/11/28 09:04:55;;;;;;;2.33;2.10;;;;;;;1.14;100.00;100822.56;5036062;28;20100;-73
2023/11/28 09:07:21;;;;;;;5.47;2.47;;;;;;;1.15;100.00;100819.13;5036769;28;20025;-74
2023/11/28 09:09:46;;;;;;;2.33;1.98;;;;;;;1.20;100.00;100817.41;5036916;28;20336;-74
2023/11/28 09:12:14;;;;;;;2.80;1.90;;;;;;;1.26;100.00;100826.84;5036674;28;20221;-74
2023/11/28 09:14:39;;;;;;;2.10;1.90;;;;;;;1.31;100.00;100820.81;5036253;28;20041;-73
2023/11/28 09:17:05;;;;;;;2.90;2.53;;;;;;;1.31;100.00;100825.97;5036505;28;20332;-73
2023/11/28 09:19:30;;;;;;;4.75;2.58;;;;;;;1.32;100.00;100827.69;5026847;28;20061;-74
2023/11/28 09:21:55;;;;;;;2.40;2.10;;;;;;;1.41;100.00;100831.09;5031304;28;20068;-74
2023/11/28 09:24:21;;;;;;;2.53;2.33;;;;;;;1.46;100.00;100830.22;5034714;28;20037;-74
2023/11/28 09:26:47;;;;;;;2.28;2.08;;;;;;;1.54;100.00;100825.03;5033904;28;20037;-73
2023/11/28 09:29:12;;;;;;;3.00;2.80;;;;;;;1.62;100.00;100840.47;5032288;28;20096;-74
2023/11/28 09:31:38;;;;;;;4.68;2.83;;;;;;;1.62;100.00;100838.78;5033408;28;20352;-74
2023/11/28 09:34:03;;;;;;;2.10;2.00;;;;;;;1.65;100.00;100843.06;5032004;28;20083;-74
2023/11/28 09:36:30;;;;;;;2.53;2.33;;;;;;;1.66;100.00;100839.63;5033249;28;20029;-74
2023/11/28 09:38:59;;;;;;;2.40;2.20;;;;;;;1.65;100.00;100849.06;5031280;28;20048;-74
2023/11/28 09:41:25;;;;;;;2.88;2.60;;;;;;;1.68;100.00;100854.25;5030825;28;20228;-74
2023/11/28 09:43:54;;;;;;;2.50;2.30;;;;;;;1.69;100.00;100861.13;5030322;28;20026;-74
2023/11/28 09:46:23;;;;;;;2.43;2.27;;;;;;;1.67;100.00;100860.28;5031082;28;20037;-74
2023/11/28 09:48:53;;;;;;;5.30;2.92;;;;;;;1.65;100.00;100854.25;5031745;28;20044;-74
2023/11/28 09:51:20;;;;;;;2.63;2.42;;;;;;;1.72;100.00;100853.34;5031786;28;20017;-74
2023/11/28 09:53:48;;;;;;;2.60;2.40;;;;;;;1.79;100.00;100854.19;5033686;28;20052;-74
2023/11/28 09:56:18;;;;;;;3.10;2.35;;;;;;;1.84;100.00;100856.78;5034016;28;20040;-74
2023/11/28 09:58:45;;;;;;;2.40;2.20;;;;;;;1.84;100.00;100855.03;5032405;28;20059;-74
2023/11/28 10:01:14;;;;;;;3.58;2.20;;;;;;;1.91;100.00;100859.31;5031327;28;20095;-74
2023/11/28 10:03:40;;;;;;;2.20;2.00;;;;;;;1.95;100.00;100857.56;5033682;28;20360;-74
2023/11/28 10:06:09;;;;;;;2.42;2.20;;;;;;;1.99;100.00;100861.84;5034875;28;20051;-74
2023/11/28 10:08:36;;;;;;;2.30;2.20;;;;;;;2.05;100.00;100861.81;5032606;28;20025;-74
2023/11/28 10:11:03;;;;;;;1.75;1.52;;;;;;;2.12;100.00;100862.66;5034179;28;20265;-74
2023/11/28 10:13:28;;;;;;;3.47;2.13;;;;;;;2.18;100.00;100861.75;5032997;28;20029;-74
2023/11/28 10:15:54;;;;;;;6.80;2.78;;;;;;;2.20;100.00;100865.19;5033263;28;20036;-73
2023/11/28 10:18:20;;;;;;;3.60;2.63;;;;;;;2.14;100.00;100870.41;5033078;28;20281;-73
2023/11/28 10:20:46;;;;;;;4.30;2.35;;;;;;;2.17;100.00;100876.41;5032812;28;20083;-73
2023/11/28 10:23:14;;;;;;;2.38;2.17;;;;;;;2.14;100.00;100873.81;5031782;28;20033;-73
2023/11/28 10:25:40;;;;;;;3.20;2.50;;;;;;;2.15;100.00;100869.50;5030984;28;20021;-73
2023/11/28 10:28:08;;;;;;;2.33;2.05;;;;;;;2.20;100.00;100875.50;5031471;28;20029;-73
2023/11/28 10:30:36;;;;;;;2.60;2.40;;;;;;;2.17;100.00;100872.97;5032595;28;20052;-74
2023/11/28 10:33:02;;;;;;;2.50;2.13;;;;;;;2.16;100.00;100874.69;5031562;28;20031;-74
2023/11/28 10:35:54;;;;;;;3.80;2.42;;;;;;;2.20;100.00;100872.94;5030693;28;20060;-74
2023/11/28 10:38:19;;;;;;;4.32;2.20;;;;;;;2.20;100.00;100871.22;5027673;28;20115;-74
2023/11/28 10:40:49;;;;;;;2.42;2.22;;;;;;;2.30;100.00;100867.69;5029870;28;20033;-74
2023/11/28 10:43:15;;;;;;;6.15;2.28;;;;;;;2.26;99.71;100868.59;5030690;28;20104;-74
2023/11/28 10:45:43;;;;;;;2.80;2.40;;;;;;;2.28;99.77;100869.44;5030600;28;20025;-74
2023/11/28 10:48:09;;;;;;;2.45;2.25;;;;;;;2.28;99.15;100861.69;5030041;28;20037;-74
2023/11/28 10:50:35;;;;;;;3.15;2.13;;;;;;;2.30;98.91;100853.94;5032391;28;20017;-74
2023/11/28 10:53:06;;;;;;;4.03;2.13;;;;;;;2.36;99.25;100850.44;5032436;28;20171;-73
2023/11/28 10:55:40;;;;;;;2.50;2.20;;;;;;;2.42;99.27;100853.84;5030816;28;20041;-73
2023/11/28 10:58:11;;;;;;;2.55;2.35;;;;;;;2.44;99.35;100848.69;5031216;28;20036;-73
2023/11/28 11:00:38;;;;;;;2.85;2.53;;;;;;;2.45;99.64;100848.66;5030756;28;20022;-73
2023/11/28 11:03:04;;;;;;;3.13;2.13;;;;;;;2.47;99.51;100846.94;5030380;28;20045;-73
2023/11/28 11:05:30;;;;;;;3.53;2.42;;;;;;;2.44;98.94;100848.69;5030963;28;20013;-73
2023/11/28 11:07:59;;;;;;;4.28;2.50;;;;;;;2.49;99.13;100850.38;5030227;28;20299;-74
2023/11/28 11:10:25;;;;;;;;;;;;;;;2.52;99.25;100848.63;5030061;28;20087;-74
2023/11/28 11:13:12;;;;;;;6.22;2.40;;;;;;;2.54;99.53;100858.06;5030007;28;20127;-74
2023/11/28 11:15:57;;;;;;;3.67;2.53;;;;;;;2.53;99.25;100865.81;5030833;28;20029;-74
2023/11/28 11:18:34;;;;;;;2.33;2.13;;;;;;;2.57;99.25;100867.53;5031235;28;20049;-74
2023/11/28 11:21:08;;;;;;;3.65;2.80;;;;;;;2.60;99.36;100860.63;5028976;28;20036;-74
2023/11/28 11:23:36;;;;;;;2.60;2.40;;;;;;;2.60;99.61;100857.16;5029869;28;20079;-74